createdAt,value
2019-03-30T00:00:03.392Z,6.96
2019-03-30T00:02:35.487Z,6.97
2019-03-30T00:05:04.019Z,6.82
2019-03-30T00:07:33.159Z,6.75
2019-03-30T00:10:02.501Z,6.83
2019-03-30T00:12:31.775Z,6.76
2019-03-30T00:15:00.803Z,6.71
2019-03-30T00:17:30.128Z,6.61
2019-03-30T00:19:59.375Z,6.56
2019-03-30T00:22:28.549Z,6.58
2019-03-30T00:24:57.631Z,6.56
2019-03-30T00:27:26.624Z,6.54
2019-03-30T00:29:55.709Z,6.54
2019-03-30T00:32:24.695Z,6.51
2019-03-30T00:34:53.681Z,6.53
2019-03-30T00:37:22.940Z,6.48
2019-03-30T00:39:52.233Z,6.54
2019-03-30T00:42:21.259Z,6.54
2019-03-30T00:44:50.734Z,6.48
2019-03-30T00:47:20.222Z,6.43
2019-03-30T00:49:50.259Z,6.51
2019-03-30T00:52:19.551Z,6.58
2019-03-30T00:54:49.536Z,6.70
2019-03-30T00:57:18.500Z,6.63
2019-03-30T00:59:47.505Z,6.63
2019-03-30T01:02:16.466Z,6.59
2019-03-30T01:04:46.512Z,6.47
2019-03-30T01:07:15.610Z,6.38
2019-03-30T01:09:44.595Z,6.38
2019-03-30T01:12:13.852Z,6.43
2019-03-30T01:14:43.247Z,6.54
2019-03-30T01:17:14.031Z,6.39
2019-03-30T01:19:43.754Z,6.43
2019-03-30T01:22:12.933Z,6.38
2019-03-30T01:24:42.257Z,6.37
2019-03-30T01:27:11.913Z,6.28
2019-03-30T01:29:40.853Z,6.33
2019-03-30T01:32:09.897Z,6.08
2019-03-30T01:34:39.847Z,6.01
2019-03-30T01:37:08.800Z,5.98
2019-03-30T01:39:38.008Z,5.95
2019-03-30T01:42:06.971Z,6.05
2019-03-30T01:44:35.985Z,5.97
2019-03-30T01:47:06.226Z,5.98
2019-03-30T01:49:35.593Z,5.87
2019-03-30T01:52:04.554Z,5.86
2019-03-30T01:54:33.946Z,5.74
2019-03-30T01:57:02.949Z,5.67
2019-03-30T01:59:32.006Z,5.60
2019-03-30T02:02:01.024Z,5.64
2019-03-30T02:04:30.067Z,5.68
2019-03-30T02:06:59.056Z,5.70
2019-03-30T02:09:28.205Z,5.79
2019-03-30T02:11:57.160Z,5.68
2019-03-30T02:14:26.244Z,5.74
2019-03-30T02:16:55.204Z,5.71
2019-03-30T02:19:24.822Z,5.63
2019-03-30T02:21:53.969Z,5.52
2019-03-30T02:24:23.221Z,5.64
2019-03-30T02:26:52.183Z,5.49
2019-03-30T02:29:22.453Z,5.43
2019-03-30T02:31:51.946Z,5.50
2019-03-30T02:34:21.074Z,5.49
2019-03-30T02:36:50.198Z,5.47
2019-03-30T02:39:19.224Z,5.27
2019-03-30T02:41:48.333Z,5.42
2019-03-30T02:44:17.699Z,5.25
2019-03-30T02:46:47.473Z,5.34
2019-03-30T02:49:16.582Z,5.23
2019-03-30T02:51:45.585Z,5.24
2019-03-30T02:54:15.342Z,5.16
2019-03-30T02:56:44.924Z,5.12
2019-03-30T02:59:14.357Z,5.17
2019-03-30T03:01:44.081Z,5.12
2019-03-30T03:04:13.133Z,5.23
2019-03-30T03:06:42.122Z,5.07
2019-03-30T03:09:11.112Z,4.94
2019-03-30T03:11:40.233Z,4.93
2019-03-30T03:14:09.189Z,4.95
2019-03-30T03:16:38.252Z,4.82
2019-03-30T03:19:07.338Z,5.05
2019-03-30T03:21:36.288Z,5.07
2019-03-30T03:24:05.377Z,5.11
2019-03-30T03:26:35.659Z,4.97
2019-03-30T03:29:04.954Z,5.01
2019-03-30T03:31:34.089Z,4.95
2019-03-30T03:34:03.192Z,4.95
2019-03-30T03:36:32.346Z,4.94
2019-03-30T03:39:01.588Z,4.95
2019-03-30T03:41:31.282Z,4.94
2019-03-30T03:44:00.227Z,5.02
2019-03-30T03:46:29.487Z,4.96
2019-03-30T03:48:58.478Z,4.97
2019-03-30T03:51:29.343Z,4.59
2019-03-30T03:53:59.792Z,4.66
2019-03-30T03:56:31.758Z,4.74
2019-03-30T03:59:04.026Z,4.76
2019-03-30T04:01:36.704Z,4.88
2019-03-30T04:04:09.925Z,4.75
2019-03-30T04:06:42.856Z,4.76
2019-03-30T04:09:15.785Z,4.84
2019-03-30T04:11:46.870Z,4.81
2019-03-30T04:14:19.833Z,4.77
2019-03-30T04:16:48.900Z,4.23
2019-03-30T04:19:18.214Z,4.27
2019-03-30T04:21:47.201Z,4.44
2019-03-30T04:24:16.193Z,4.45
2019-03-30T04:26:45.259Z,4.47
2019-03-30T04:29:14.248Z,4.46
2019-03-30T04:31:43.670Z,4.37
2019-03-30T04:34:13.212Z,4.41
2019-03-30T04:36:42.172Z,4.44
2019-03-30T04:39:11.233Z,4.26
2019-03-30T04:41:40.229Z,4.17
2019-03-30T04:44:09.240Z,4.10
2019-03-30T04:46:40.050Z,4.25
2019-03-30T04:49:09.443Z,4.23
2019-03-30T04:51:38.641Z,4.15
2019-03-30T04:54:07.747Z,4.16
2019-03-30T04:56:36.781Z,4.04
2019-03-30T04:59:05.901Z,4.00
2019-03-30T05:01:34.968Z,4.01
2019-03-30T05:04:04.029Z,3.98
2019-03-30T05:06:33.015Z,3.94
2019-03-30T05:09:02.310Z,4.07
2019-03-30T05:11:31.597Z,3.88
2019-03-30T05:14:00.593Z,4.05
2019-03-30T05:16:29.870Z,4.16
2019-03-30T05:18:58.874Z,4.02
2019-03-30T05:21:27.922Z,3.90
2019-03-30T05:23:57.210Z,3.86
2019-03-30T05:26:26.174Z,3.89
2019-03-30T05:28:55.453Z,3.89
2019-03-30T05:31:24.465Z,3.80
2019-03-30T05:33:53.464Z,3.89
2019-03-30T05:36:22.771Z,4.05
2019-03-30T05:38:51.769Z,4.30
2019-03-30T05:41:20.884Z,4.26
2019-03-30T05:43:49.835Z,4.30
2019-03-30T05:46:18.828Z,4.19
2019-03-30T05:48:48.150Z,4.21
2019-03-30T05:51:17.392Z,4.19
2019-03-30T05:53:46.429Z,4.42
2019-03-30T05:56:15.732Z,4.49
2019-03-30T05:58:45.013Z,4.53
2019-03-30T06:01:14.042Z,4.56
2019-03-30T06:03:44.092Z,4.64
2019-03-30T06:06:13.113Z,4.55
2019-03-30T06:08:42.130Z,4.69
2019-03-30T06:11:11.532Z,4.78
2019-03-30T06:13:42.363Z,4.46
2019-03-30T06:16:11.842Z,4.89
2019-03-30T06:18:40.790Z,5.10
2019-03-30T06:21:09.806Z,4.97
2019-03-30T06:23:40.416Z,5.16
2019-03-30T06:26:09.508Z,5.45
2019-03-30T06:28:38.482Z,5.23
2019-03-30T06:31:07.429Z,5.44
2019-03-30T06:33:36.479Z,5.40
2019-03-30T06:36:06.117Z,5.73
2019-03-30T06:38:36.710Z,5.87
2019-03-30T06:41:06.303Z,5.96
2019-03-30T06:43:35.279Z,6.18
2019-03-30T06:46:04.351Z,6.14
2019-03-30T06:48:35.930Z,5.95
2019-03-30T06:51:04.443Z,6.22
2019-03-30T06:53:33.518Z,6.45
2019-03-30T06:56:02.825Z,6.40
2019-03-30T06:58:32.105Z,6.35
2019-03-30T07:01:01.208Z,6.06
2019-03-30T07:03:30.197Z,6.52
2019-03-30T07:06:00.453Z,6.40
2019-03-30T07:08:32.361Z,7.01
2019-03-30T07:11:03.595Z,6.71
2019-03-30T07:13:38.030Z,6.81
2019-03-30T07:16:07.235Z,7.34
2019-03-30T07:18:39.146Z,7.02
2019-03-30T07:21:08.200Z,7.67
2019-03-30T07:23:37.335Z,7.47
2019-03-30T07:26:06.401Z,7.84
2019-03-30T07:28:35.584Z,7.94
2019-03-30T07:31:04.605Z,8.06
2019-03-30T07:33:33.668Z,8.28
2019-03-30T07:36:03.061Z,8.91
2019-03-30T07:38:32.164Z,8.73
2019-03-30T07:41:01.226Z,9.13
2019-03-30T07:43:30.372Z,9.16
2019-03-30T07:45:59.923Z,9.31
2019-03-30T07:48:28.940Z,9.83
2019-03-30T07:50:57.950Z,10.19
2019-03-30T07:53:27.193Z,9.44
2019-03-30T07:56:07.737Z,9.68
2019-03-30T07:58:27.395Z,9.74
2019-03-30T08:00:56.432Z,9.66
2019-03-30T08:03:25.391Z,10.02
2019-03-30T08:05:54.618Z,10.07
2019-03-30T08:08:23.662Z,10.89
2019-03-30T08:10:52.613Z,10.70
2019-03-30T08:13:21.764Z,10.92
2019-03-30T08:15:50.850Z,10.85
2019-03-30T08:18:19.915Z,10.37
2019-03-30T08:20:48.874Z,10.66
2019-03-30T08:23:17.977Z,10.92
2019-03-30T08:25:47.004Z,11.31
2019-03-30T08:28:16.120Z,11.92
2019-03-30T08:30:45.132Z,12.55
2019-03-30T08:33:14.388Z,12.99
2019-03-30T08:35:43.420Z,13.03
2019-03-30T08:38:12.545Z,13.31
2019-03-30T08:40:42.365Z,13.36
2019-03-30T08:43:12.397Z,13.64
2019-03-30T08:45:41.352Z,14.08
2019-03-30T08:48:10.293Z,13.83
2019-03-30T08:50:39.839Z,14.22
2019-03-30T08:53:10.399Z,14.55
2019-03-30T08:55:39.568Z,14.86
2019-03-30T08:58:08.504Z,14.89
2019-03-30T09:00:42.523Z,14.89
2019-03-30T09:03:11.608Z,14.89
2019-03-30T09:05:40.737Z,14.97
2019-03-30T09:08:09.878Z,15.30
2019-03-30T09:10:39.277Z,15.53
2019-03-30T09:13:08.589Z,15.50
2019-03-30T09:15:37.706Z,15.37
2019-03-30T09:18:06.738Z,15.52
2019-03-30T09:20:35.823Z,15.86
2019-03-30T09:23:04.863Z,15.86
2019-03-30T09:25:33.956Z,16.33
2019-03-30T09:28:03.067Z,16.09
2019-03-30T09:30:32.022Z,16.44
2019-03-30T09:33:01.028Z,16.39
2019-03-30T09:35:30.041Z,16.42
2019-03-30T09:37:58.965Z,16.42
2019-03-30T09:40:28.172Z,16.49
2019-03-30T09:42:57.690Z,16.66
2019-03-30T09:45:27.721Z,16.90
2019-03-30T09:47:56.910Z,16.82
2019-03-30T09:50:25.950Z,16.66
2019-03-30T09:52:55.324Z,16.60
2019-03-30T09:55:27.090Z,16.85
2019-03-30T09:57:55.308Z,17.10
2019-03-30T10:00:24.298Z,16.64
2019-03-30T10:02:53.487Z,16.86
2019-03-30T10:05:22.542Z,16.79
2019-03-30T10:07:51.831Z,16.75
2019-03-30T10:10:20.876Z,17.04
2019-03-30T10:12:50.271Z,17.12
2019-03-30T10:15:19.327Z,17.14
2019-03-30T10:17:48.662Z,17.26
2019-03-30T10:20:17.951Z,17.02
2019-03-30T10:22:47.803Z,17.13
2019-03-30T10:25:17.294Z,17.08
2019-03-30T10:27:46.538Z,17.24
2019-03-30T10:30:16.139Z,17.27
2019-03-30T10:32:46.136Z,17.32
2019-03-30T10:35:16.028Z,17.19
2019-03-30T10:37:45.168Z,17.22
2019-03-30T10:40:14.268Z,17.28
2019-03-30T10:42:43.266Z,17.56
2019-03-30T10:45:13.068Z,17.68
2019-03-30T10:47:42.385Z,17.80
2019-03-30T10:50:11.561Z,17.75
2019-03-30T10:52:40.546Z,17.78
2019-03-30T10:55:10.155Z,17.89
2019-03-30T10:57:39.501Z,17.87
2019-03-30T11:00:10.994Z,18.00
2019-03-30T11:02:40.070Z,17.93
2019-03-30T11:05:09.086Z,17.74
2019-03-30T11:07:38.116Z,17.89
2019-03-30T11:10:08.564Z,18.01
2019-03-30T11:12:37.655Z,18.00
2019-03-30T11:15:07.159Z,18.02
2019-03-30T11:17:36.312Z,17.89
2019-03-30T11:20:05.832Z,18.08
2019-03-30T11:22:34.846Z,18.16
2019-03-30T11:25:07.654Z,18.12
2019-03-30T11:27:35.249Z,18.05
2019-03-30T11:30:04.466Z,18.05
2019-03-30T11:32:33.495Z,17.90
2019-03-30T11:35:02.786Z,18.00
2019-03-30T11:37:31.756Z,17.91
2019-03-30T11:40:00.743Z,17.80
2019-03-30T11:42:30.062Z,18.00
2019-03-30T11:45:00.874Z,18.01
2019-03-30T11:47:29.818Z,18.13
2019-03-30T11:49:59.401Z,17.99
2019-03-30T11:52:28.643Z,18.08
2019-03-30T11:54:57.905Z,18.18
2019-03-30T11:57:45.702Z,17.87
2019-03-30T12:00:33.139Z,18.05
2019-03-30T12:03:21.184Z,18.12
2019-03-30T12:06:08.885Z,18.27
2019-03-30T12:08:39.721Z,18.23
2019-03-30T12:11:09.015Z,18.20
2019-03-30T12:13:38.080Z,18.51
2019-03-30T12:16:07.035Z,18.50
2019-03-30T12:18:36.030Z,18.53
2019-03-30T12:21:05.047Z,18.55
2019-03-30T12:23:34.055Z,18.48
2019-03-30T12:26:03.008Z,18.16
2019-03-30T12:28:32.163Z,18.04
2019-03-30T12:31:01.162Z,18.13
2019-03-30T12:33:30.396Z,18.21
2019-03-30T12:35:59.422Z,18.17
2019-03-30T12:38:29.977Z,18.21
2019-03-30T12:40:58.972Z,18.28
2019-03-30T12:43:27.947Z,18.17
2019-03-30T12:45:56.944Z,18.11
2019-03-30T12:48:26.822Z,18.61
2019-03-30T12:50:55.846Z,18.51
2019-03-30T12:53:24.829Z,18.41
2019-03-30T12:55:53.769Z,18.47
2019-03-30T12:58:23.143Z,18.48
2019-03-30T13:00:52.504Z,18.50
2019-03-30T13:03:21.453Z,18.46
2019-03-30T13:05:50.535Z,18.70
2019-03-30T13:08:19.815Z,18.75
2019-03-30T13:10:49.179Z,18.81
2019-03-30T13:13:18.128Z,18.88
2019-03-30T13:15:47.185Z,18.84
2019-03-30T13:18:16.270Z,18.84
2019-03-30T13:20:45.258Z,19.02
2019-03-30T13:23:14.475Z,18.85
2019-03-30T13:25:43.470Z,18.51
2019-03-30T13:28:12.566Z,18.86
2019-03-30T13:30:44.299Z,18.59
2019-03-30T13:33:13.797Z,18.20
2019-03-30T13:35:42.870Z,18.14
2019-03-30T13:38:11.860Z,18.00
2019-03-30T13:40:41.182Z,17.85
2019-03-30T13:43:10.121Z,17.75
2019-03-30T13:45:39.061Z,17.97
2019-03-30T13:48:08.098Z,18.49
2019-03-30T13:50:38.061Z,18.54
2019-03-30T13:53:07.167Z,18.70
2019-03-30T13:55:36.239Z,18.75
2019-03-30T13:58:05.223Z,18.65
2019-03-30T14:00:34.682Z,18.95
2019-03-30T14:03:04.035Z,18.83
2019-03-30T14:05:33.193Z,18.67
2019-03-30T14:08:02.275Z,18.57
2019-03-30T14:10:31.223Z,18.60
2019-03-30T14:13:01.182Z,18.64
2019-03-30T14:15:30.121Z,18.63
2019-03-30T14:17:59.070Z,18.72
2019-03-30T14:20:28.278Z,18.56
2019-03-30T14:22:57.228Z,18.49
2019-03-30T14:25:26.290Z,18.59
2019-03-30T14:27:55.276Z,18.77
2019-03-30T14:30:24.268Z,18.84
2019-03-30T14:32:53.214Z,18.87
2019-03-30T14:35:22.211Z,18.88
2019-03-30T14:37:51.401Z,18.74
2019-03-30T14:40:20.385Z,18.80
2019-03-30T14:42:49.437Z,18.79
2019-03-30T14:45:18.525Z,18.62
2019-03-30T14:47:47.576Z,18.52
2019-03-30T14:50:17.251Z,18.51
2019-03-30T14:52:46.187Z,18.76
2019-03-30T14:55:15.135Z,18.80
2019-03-30T14:57:44.117Z,18.66
2019-03-30T15:00:13.539Z,18.76
2019-03-30T15:02:45.377Z,18.78
2019-03-30T15:05:24.049Z,18.87
2019-03-30T15:07:53.050Z,18.62
2019-03-30T15:10:21.957Z,18.69
2019-03-30T15:12:50.997Z,18.44
2019-03-30T15:15:19.974Z,18.62
2019-03-30T15:17:49.277Z,18.61
2019-03-30T15:20:18.279Z,18.53
2019-03-30T15:22:47.209Z,18.32
2019-03-30T15:25:16.472Z,18.22
2019-03-30T15:27:45.414Z,18.70
2019-03-30T15:30:14.595Z,18.60
2019-03-30T15:32:43.675Z,18.33
2019-03-30T15:35:14.119Z,18.40
2019-03-30T15:37:43.780Z,18.54
2019-03-30T15:40:13.201Z,18.27
2019-03-30T15:42:42.150Z,18.02
2019-03-30T15:45:11.456Z,18.11
2019-03-30T15:47:40.400Z,18.05
2019-03-30T15:50:09.831Z,17.80
2019-03-30T15:52:38.832Z,17.58
2019-03-30T15:55:09.554Z,17.65
2019-03-30T15:57:38.583Z,17.66
2019-03-30T16:00:10.469Z,17.34
2019-03-30T16:02:39.496Z,17.42
2019-03-30T16:05:08.889Z,17.39
2019-03-30T16:07:37.840Z,17.45
2019-03-30T16:10:07.568Z,17.47
2019-03-30T16:12:36.506Z,17.38
2019-03-30T16:15:10.456Z,17.28
2019-03-30T16:17:39.486Z,17.22
2019-03-30T16:20:08.736Z,17.30
2019-03-30T16:22:37.765Z,17.21
2019-03-30T16:25:07.617Z,17.40
2019-03-30T16:27:39.215Z,17.34
2019-03-30T16:30:09.210Z,17.27
2019-03-30T16:32:38.158Z,17.06
2019-03-30T16:35:07.996Z,17.21
2019-03-30T16:37:36.953Z,16.92
2019-03-30T16:40:07.143Z,16.87
2019-03-30T16:42:36.392Z,16.80
2019-03-30T16:45:05.919Z,16.63
2019-03-30T16:47:34.953Z,16.73
2019-03-30T16:50:06.796Z,16.57
2019-03-30T16:52:35.955Z,15.84
2019-03-30T16:55:05.271Z,15.51
2019-03-30T16:57:43.325Z,15.46
2019-03-30T17:00:07.489Z,15.27
2019-03-30T17:02:36.470Z,15.09
2019-03-30T17:05:06.781Z,15.13
2019-03-30T17:07:36.370Z,14.86
2019-03-30T17:10:06.165Z,14.43
2019-03-30T17:12:35.128Z,14.42
2019-03-30T17:15:04.383Z,14.28
2019-03-30T17:17:33.356Z,14.19
2019-03-30T17:20:02.489Z,14.05
2019-03-30T17:22:31.428Z,14.06
2019-03-30T17:25:00.705Z,13.87
2019-03-30T17:27:29.650Z,13.87
2019-03-30T17:29:58.685Z,13.77
2019-03-30T17:32:27.820Z,13.71
2019-03-30T17:34:56.945Z,13.77
2019-03-30T17:37:27.076Z,13.65
2019-03-30T17:39:56.045Z,13.58
2019-03-30T17:42:25.796Z,13.47
2019-03-30T17:44:56.492Z,13.52
2019-03-30T17:47:25.480Z,13.48
2019-03-30T17:49:54.644Z,13.41
2019-03-30T17:52:23.590Z,13.29
2019-03-30T17:54:52.530Z,13.19
2019-03-30T17:57:22.113Z,13.34
2019-03-30T17:59:51.046Z,13.48
2019-03-30T18:02:22.970Z,13.50
2019-03-30T18:04:51.396Z,13.37
2019-03-30T18:07:20.456Z,13.16
2019-03-30T18:09:49.775Z,13.11
2019-03-30T18:12:20.416Z,13.21
2019-03-30T18:14:49.915Z,12.99
2019-03-30T18:17:18.885Z,13.10
2019-03-30T18:19:48.010Z,12.98
2019-03-30T18:22:17.049Z,13.15
2019-03-30T18:24:46.280Z,13.15
2019-03-30T18:27:15.203Z,12.87
2019-03-30T18:29:44.184Z,13.12
2019-03-30T18:32:13.403Z,13.10
2019-03-30T18:34:43.569Z,13.00
2019-03-30T18:37:13.684Z,12.83
2019-03-30T18:39:43.192Z,12.77
2019-03-30T18:42:12.176Z,12.76
2019-03-30T18:44:42.837Z,12.78
2019-03-30T18:47:11.930Z,12.62
2019-03-30T18:49:42.636Z,12.62
2019-03-30T18:52:12.775Z,12.62
2019-03-30T18:54:42.848Z,12.54
2019-03-30T18:57:12.160Z,12.64
2019-03-30T18:59:41.155Z,12.66
2019-03-30T19:02:10.106Z,12.62
2019-03-30T19:04:39.755Z,12.47
2019-03-30T19:07:08.737Z,12.48
2019-03-30T19:09:37.726Z,12.52
2019-03-30T19:12:06.751Z,12.56
2019-03-30T19:14:35.829Z,12.49
2019-03-30T19:17:04.888Z,12.38
2019-03-30T19:19:33.871Z,12.33
2019-03-30T19:22:03.138Z,12.32
2019-03-30T19:24:32.392Z,12.24
2019-03-30T19:27:01.498Z,11.83
2019-03-30T19:29:30.519Z,12.02
2019-03-30T19:31:59.454Z,11.97
2019-03-30T19:34:28.476Z,11.90
2019-03-30T19:36:57.439Z,11.85
2019-03-30T19:39:26.441Z,11.65
2019-03-30T19:41:55.762Z,11.51
2019-03-30T19:44:24.702Z,11.67
2019-03-30T19:46:53.757Z,11.52
2019-03-30T19:49:22.953Z,11.42
2019-03-30T19:51:51.897Z,11.48
2019-03-30T19:54:20.866Z,11.35
2019-03-30T19:56:49.865Z,11.28
2019-03-30T19:59:18.912Z,11.00
2019-03-30T20:01:47.979Z,11.06
2019-03-30T20:04:17.067Z,11.03
2019-03-30T20:06:46.268Z,10.82
2019-03-30T20:09:15.272Z,10.97
2019-03-30T20:11:44.497Z,10.80
2019-03-30T20:14:14.154Z,10.87
2019-03-30T20:16:44.340Z,10.79
2019-03-30T20:19:13.361Z,10.67
2019-03-30T20:21:42.746Z,10.54
2019-03-30T20:24:11.801Z,10.53
2019-03-30T20:26:40.763Z,10.54
2019-03-30T20:29:24.370Z,10.56
2019-03-30T20:31:43.225Z,10.46
2019-03-30T20:34:12.562Z,10.36
2019-03-30T20:36:41.525Z,10.25
2019-03-30T20:39:10.545Z,10.10
2019-03-30T20:41:39.524Z,10.15
2019-03-30T20:44:08.513Z,10.04
2019-03-30T20:46:37.568Z,10.01
2019-03-30T20:49:06.539Z,9.82
2019-03-30T20:51:35.624Z,9.83
2019-03-30T20:54:04.697Z,9.74
2019-03-30T20:56:34.735Z,9.62
2019-03-30T20:59:03.956Z,9.63
2019-03-30T21:01:32.942Z,9.56
2019-03-30T21:04:01.880Z,9.57
2019-03-30T21:06:31.104Z,9.38
2019-03-30T21:09:00.039Z,9.46
2019-03-30T21:11:29.214Z,9.43
2019-03-30T21:13:58.177Z,9.43
2019-03-30T21:16:27.165Z,9.40
2019-03-30T21:18:56.136Z,9.24
2019-03-30T21:21:25.133Z,9.11
2019-03-30T21:23:54.454Z,9.09
2019-03-30T21:26:23.481Z,9.09
2019-03-30T21:28:52.472Z,9.01
2019-03-30T21:31:21.555Z,8.98
2019-03-30T21:33:50.524Z,8.98
2019-03-30T21:36:20.020Z,8.90
2019-03-30T21:38:49.192Z,9.00
2019-03-30T21:41:19.102Z,8.98
2019-03-30T21:43:48.898Z,8.84
2019-03-30T21:46:18.095Z,8.86
2019-03-30T21:48:47.123Z,8.87
2019-03-30T21:51:16.449Z,8.84
2019-03-30T21:53:45.811Z,8.87
2019-03-30T21:56:15.383Z,8.86
2019-03-30T21:58:44.457Z,8.85
2019-03-30T22:01:13.526Z,8.74
2019-03-30T22:03:42.471Z,8.73
2019-03-30T22:06:11.456Z,8.64
2019-03-30T22:08:40.642Z,8.59
2019-03-30T22:11:10.441Z,8.55
2019-03-30T22:13:39.485Z,8.63
2019-03-30T22:16:08.535Z,8.57
2019-03-30T22:18:37.700Z,8.58
2019-03-30T22:21:06.743Z,8.55
2019-03-30T22:23:36.084Z,8.45
2019-03-30T22:26:05.202Z,8.42
2019-03-30T22:28:34.544Z,8.37
2019-03-30T22:31:03.635Z,8.34
2019-03-30T22:33:32.657Z,8.33
2019-03-30T22:36:01.698Z,8.36
2019-03-30T22:38:30.862Z,8.31
2019-03-30T22:40:59.865Z,8.00
2019-03-30T22:43:28.812Z,8.17
2019-03-30T22:45:57.905Z,8.04
2019-03-30T22:48:27.450Z,7.65
2019-03-30T22:50:56.756Z,7.89
2019-03-30T22:53:25.717Z,7.87
2019-03-30T22:55:54.693Z,7.79
2019-03-30T22:58:23.656Z,7.83
2019-03-30T23:01:13.260Z,7.72
2019-03-30T23:03:42.392Z,7.66
2019-03-30T23:06:11.395Z,7.69
2019-03-30T23:08:40.348Z,7.69
2019-03-30T23:11:09.861Z,7.69
2019-03-30T23:13:38.810Z,7.54
2019-03-30T23:16:07.987Z,7.54
2019-03-30T23:18:37.063Z,7.62
2019-03-30T23:21:06.036Z,7.52
2019-03-30T23:23:35.025Z,7.55
2019-03-30T23:26:04.087Z,7.47
2019-03-30T23:28:33.143Z,7.16
2019-03-30T23:31:02.177Z,7.26
2019-03-30T23:33:31.504Z,7.40
2019-03-30T23:36:00.760Z,7.46
2019-03-30T23:38:30.453Z,7.43
2019-03-30T23:40:59.484Z,7.41
2019-03-30T23:43:28.475Z,7.42
2019-03-30T23:45:57.535Z,7.34
2019-03-30T23:48:26.530Z,7.45
2019-03-30T23:50:55.681Z,7.29
2019-03-30T23:53:24.733Z,7.36
2019-03-30T23:55:53.689Z,7.34
2019-03-30T23:58:22.779Z,7.25
